Aérodrome :
LOGIN :

S'inscrire | Disclaimer

   EN    FR    IT 

 










Légende :    VFR   VFR Marginal   IFR   IFR Intensif   IFR Très Intensif
Visi : 
Plafond : 
>= 8 km
>= 3000ft
5 à 8 km
1000 à 3000 ft
1500m à 5 km
500 à 1000 ft
800 à 1500m
200 à 500 ft
< 800m
< 200 ft
Symboles :   Orages  Brouillard  Fortes neiges  Fortes précipitations  Vent > 20 kt
SIGMETs :   Divers  Orages  Givrage  Turbulence  Onde Orograph.  Cendres Volcan.







- Altitude de l'aérodrome : 796 ft
- Code IATA : SYT
- Voir les cartes d'approche


LFLN - Saint-Yan

DERNIER METAR :
  • 200830Z AUTO 12003KT 4100 BR OVC026/// ///TCU 01/00 Q1011 TEMPO 2000 -DZRA BR BKN006

METARs EXPIRÉS :
  • 200800Z AUTO 00000KT 1900 BR BKN028/// OVC034/// ///TCU 00/M00 Q1011 BECMG 4000 BR BKN045
  • 200730Z AUTO 03003KT 2600 BR OVC028/// ///TCU 00/M00 Q1011 BECMG 4000 BR BKN045
  • 200700Z AUTO 00000KT 3000 -RA BR OVC029/// ///TCU 00/M01 Q1011 BECMG BKN045
  • 200630Z AUTO 11002KT 3200 +SNRA BR OVC031/// ///TCU M00/M01 Q1010 TEMPO NSW BECMG BKN045
  • 200600Z AUTO 00000KT 3800 -SN BR SCT033/// BKN043/// BKN054/// ///TCU M00/M01 Q1010 BECMG BKN045

TAF TAF LFLN
Valide du 20 à 09h jusqu'au 20 à 18h UTC


200800Z 2009/2018 VRB03KT 4000 BR BKN022
TEMPO 2009/2012 2000 -DZRA BR BKN006
BECMG 2012/2015 OVC006
Pas de NOTAMs connus pour ce terrain.



MET'MAP, la Météo Aéronautique d'un coup d'oeil ! - Copyright ORBIFLY Décembre 2007 - Disclaimer

ORBIFLY MET'MAP TEAM :

Programmation & Développement : Alexandra Zaïnal
Conception & Développement : Baudouin d'Aumeries
Co-Programmation & Développement : Marc-Olivier Méhu
Soutien technique & logistique : Manuel Goepfert

Contact : metmap@orbifly.com




SOURCES & CREDITS :

   NOAA